Time;durP1;ratioP1;P1;durP2;ratioP2;P2;SDS_P1;SDS_P2;PMS_P1;PMS_P2;Temp;Humidity;BMP_temperature;BMP_pressure;BME280_temperature;BME280_humidity;BME280_pressure;Samples;Min_cycle;Max_cycle;Signal;HPM_P1;HPM_P2
2021/07/05 00:00:24;;;;;;;1.33;0.77;;;;;;;-146.52;100.00;63329.72;1012952;29;20071;-79
2021/07/05 00:00:55;;;;;;;0.90;0.68;;;;;;;-146.52;100.00;63329.72;1008851;29;20031;-78
2021/07/05 00:01:25;;;;;;;3.13;1.02;;;;;;;-146.52;100.00;63329.72;997678;29;20121;-79
2021/07/05 00:01:56;;;;;;;2.30;0.68;;;;;;;-146.52;100.00;63329.72;1001296;29;20029;-78
2021/07/05 00:02:27;;;;;;;1.40;0.80;;;;;;;-146.52;100.00;63329.72;997653;29;20026;-79
2021/07/05 00:02:57;;;;;;;2.08;1.20;;;;;;;-146.52;100.00;63329.72;1001472;29;20575;-78
2021/07/05 00:03:28;;;;;;;1.27;0.77;;;;;;;-146.52;100.00;63329.72;997809;29;20054;-78
2021/07/05 00:03:58;;;;;;;2.65;0.90;;;;;;;-146.52;100.00;63329.72;997756;29;20113;-78
2021/07/05 00:04:29;;;;;;;2.38;0.73;;;;;;;-146.52;100.00;63329.72;997534;29;20117;-78
2021/07/05 00:05:00;;;;;;;1.45;0.80;;;;;;;-146.52;100.00;63329.72;1005172;29;20025;-78
2021/07/05 00:05:30;;;;;;;1.02;0.70;;;;;;;-146.52;100.00;63329.72;1001308;29;20018;-78
2021/07/05 00:06:01;;;;;;;1.38;0.82;;;;;;;-146.52;100.00;63329.72;1005210;29;20028;-79
2021/07/05 00:06:31;;;;;;;1.83;0.80;;;;;;;-146.52;100.00;63329.72;1001433;29;20097;-79
2021/07/05 00:07:02;;;;;;;2.22;0.75;;;;;;;-146.52;100.00;63329.72;1001524;29;20022;-77
2021/07/05 00:07:33;;;;;;;1.20;0.90;;;;;;;-146.52;100.00;63329.72;1001367;29;20029;-78
2021/07/05 00:08:04;;;;;;;1.58;0.90;;;;;;;-146.52;100.00;63329.72;1001101;29;20049;-77
2021/07/05 00:08:35;;;;;;;1.35;0.85;;;;;;;-146.52;100.00;63329.72;1001350;29;20102;-77
2021/07/05 00:09:06;;;;;;;3.53;1.25;;;;;;;-146.52;100.00;63329.72;1005270;29;20061;-79
2021/07/05 00:09:36;;;;;;;1.20;0.80;;;;;;;-146.52;100.00;63329.72;1005517;29;20033;-78
2021/07/05 00:10:07;;;;;;;1.75;0.80;;;;;;;-146.52;100.00;63329.72;1001316;29;20030;-77
2021/07/05 00:10:38;;;;;;;1.73;0.80;;;;;;;-146.52;100.00;63329.72;997614;29;20024;-78
2021/07/05 00:11:09;;;;;;;1.15;0.73;;;;;;;-146.52;100.00;63329.72;997941;29;20426;-77
2021/07/05 00:11:39;;;;;;;1.92;0.70;;;;;;;-146.52;100.00;63329.72;1005344;29;20384;-77
2021/07/05 00:12:10;;;;;;;1.65;0.90;;;;;;;-146.52;100.00;63329.72;1005282;29;20014;-77
2021/07/05 00:12:45;;;;;;;1.23;0.60;;;;;;;-146.52;100.00;63329.72;1001178;29;20109;-77
2021/07/05 00:13:15;;;;;;;4.65;0.75;;;;;;;-146.52;100.00;63329.72;1009105;29;20514;-78
2021/07/05 00:13:46;;;;;;;1.15;0.77;;;;;;;-146.52;100.00;63329.72;1001449;29;20018;-77
2021/07/05 00:14:17;;;;;;;1.08;0.70;;;;;;;-146.52;100.00;63329.72;1009052;29;20184;-77
2021/07/05 00:14:47;;;;;;;2.15;0.90;;;;;;;-146.52;100.00;63329.72;1001209;29;20014;-77
2021/07/05 00:15:23;;;;;;;1.48;0.75;;;;;;;-146.52;100.00;63329.72;1001387;29;20048;-77
2021/07/05 00:15:54;;;;;;;2.40;0.70;;;;;;;-146.52;100.00;63329.72;1005137;29;20017;-79
2021/07/05 00:16:25;;;;;;;2.70;0.70;;;;;;;-146.52;100.00;63329.72;1005005;29;20021;-77
2021/07/05 00:16:56;;;;;;;1.05;0.60;;;;;;;-146.52;100.00;63329.72;1001247;29;20036;-77
2021/07/05 00:17:26;;;;;;;0.77;0.65;;;;;;;-146.52;100.00;63329.72;1012715;29;20111;-77
2021/07/05 00:18:02;;;;;;;1.02;0.65;;;;;;;-146.52;100.00;63329.72;1005131;29;20466;-80
2021/07/05 00:18:32;;;;;;;1.15;0.88;;;;;;;-146.52;100.00;63329.72;1005235;29;20018;-79
2021/07/05 00:19:03;;;;;;;2.45;0.60;;;;;;;-146.52;100.00;63329.72;1005117;29;20053;-78
2021/07/05 00:19:33;;;;;;;1.02;0.70;;;;;;;-146.52;100.00;63329.72;998275;29;20030;-79
2021/07/05 00:20:05;;;;;;;0.68;0.60;;;;;;;-146.52;100.00;63329.72;1001755;29;20105;-77
2021/07/05 00:20:38;;;;;;;1.25;0.90;;;;;;;-146.52;100.00;63329.72;1001551;29;20097;-79
2021/07/05 00:21:09;;;;;;;0.80;0.70;;;;;;;-146.52;100.00;63329.72;1005539;29;20025;-79
2021/07/05 00:21:40;;;;;;;3.88;0.80;;;;;;;-146.52;100.00;63329.72;1001393;29;20536;-79
2021/07/05 00:22:10;;;;;;;2.53;0.65;;;;;;;-146.52;100.00;63329.72;1001527;29;20026;-79
2021/07/05 00:22:41;;;;;;;2.17;0.80;;;;;;;-146.52;100.00;63329.72;1005044;29;20137;-78
2021/07/05 00:23:12;;;;;;;0.88;0.70;;;;;;;-146.52;100.00;63329.72;1001616;29;20556;-78
2021/07/05 00:23:42;;;;;;;1.23;0.80;;;;;;;-146.52;100.00;63329.72;1005178;29;20475;-77
2021/07/05 00:24:13;;;;;;;1.33;0.70;;;;;;;-146.52;100.00;63329.72;1005188;29;20029;-77
2021/07/05 00:24:44;;;;;;;1.85;0.82;;;;;;;-146.52;100.00;63329.72;1005035;29;20454;-78
2021/07/05 00:25:14;;;;;;;1.17;0.90;;;;;;;-146.52;100.00;63329.72;1001279;29;20204;-77
2021/07/05 00:25:45;;;;;;;2.55;0.80;;;;;;;-146.52;100.00;63329.72;1001300;29;20116;-77
2021/07/05 00:26:15;;;;;;;1.15;0.70;;;;;;;-146.52;100.00;63329.72;1001255;29;20125;-77
2021/07/05 00:26:46;;;;;;;1.73;1.08;;;;;;;-146.52;100.00;63329.72;1009019;29;20195;-77
2021/07/05 00:27:17;;;;;;;2.25;0.77;;;;;;;-146.52;100.00;63329.72;1004934;29;20029;-77
2021/07/05 00:27:47;;;;;;;0.80;0.50;;;;;;;-146.52;100.00;63329.72;1001220;29;20526;-77
2021/07/05 00:28:18;;;;;;;0.80;0.65;;;;;;;-146.52;100.00;63329.72;1004956;29;20502;-79
2021/07/05 00:28:48;;;;;;;1.38;0.80;;;;;;;-146.52;100.00;63329.72;1009072;29;20108;-78
2021/07/05 00:29:19;;;;;;;1.73;0.65;;;;;;;-146.52;100.00;63329.72;1008969;29;20116;-76
2021/07/05 00:29:49;;;;;;;2.17;0.80;;;;;;;-146.52;100.00;63329.72;1001224;29;20136;-78
2021/07/05 00:30:21;;;;;;;3.35;1.00;;;;;;;-146.52;100.00;63329.72;1008867;29;20551;-76
2021/07/05 00:30:52;;;;;;;0.98;0.70;;;;;;;-146.52;100.00;63329.72;1009080;29;20053;-77
2021/07/05 00:31:22;;;;;;;3.88;0.80;;;;;;;-146.52;100.00;63329.72;1001164;29;20086;-77
2021/07/05 00:31:53;;;;;;;0.90;0.70;;;;;;;-146.52;100.00;63329.72;1001308;29;20026;-77
2021/07/05 00:32:24;;;;;;;1.77;0.75;;;;;;;-146.52;100.00;63329.72;1001249;29;20114;-77
2021/07/05 00:32:54;;;;;;;3.80;0.70;;;;;;;-146.52;100.00;63329.72;997566;29;20156;-77
2021/07/05 00:33:25;;;;;;;0.93;0.75;;;;;;;-146.52;100.00;63329.72;1001184;29;20109;-76
2021/07/05 00:33:55;;;;;;;1.40;0.90;;;;;;;-146.52;100.00;63329.72;1001565;29;20488;-78
2021/07/05 00:34:26;;;;;;;1.30;0.70;;;;;;;-146.52;100.00;63329.72;1005085;29;20033;-78
2021/07/05 00:34:56;;;;;;;1.95;0.73;;;;;;;-146.52;100.00;63329.72;1001275;29;20064;-78
2021/07/05 00:35:27;;;;;;;1.48;0.70;;;;;;;-146.52;100.00;63329.72;998069;29;20089;-78
2021/07/05 00:35:58;;;;;;;2.33;0.80;;;;;;;-146.52;100.00;63329.72;998081;29;20105;-77
2021/07/05 00:36:28;;;;;;;1.75;0.80;;;;;;;-146.52;100.00;63329.72;1001926;29;20124;-77
2021/07/05 00:36:59;;;;;;;1.65;0.90;;;;;;;-146.52;100.00;63329.72;1001919;29;20051;-77
2021/07/05 00:37:29;;;;;;;3.17;0.77;;;;;;;-146.52;100.00;63329.72;1001314;29;20133;-78
2021/07/05 00:38:00;;;;;;;0.90;0.60;;;;;;;-146.52;100.00;63329.72;1001576;29;20055;-77
2021/07/05 00:38:31;;;;;;;3.30;0.77;;;;;;;-146.52;100.00;63329.72;1001535;29;20120;-78
2021/07/05 00:39:02;;;;;;;1.90;0.88;;;;;;;-146.52;100.00;63329.72;997683;29;20097;-78
2021/07/05 00:39:32;;;;;;;2.45;0.70;;;;;;;-146.52;100.00;63329.72;1001490;29;20108;-78
2021/07/05 00:40:04;;;;;;;2.30;0.90;;;;;;;-146.52;100.00;63329.72;1004995;29;20029;-79
2021/07/05 00:40:35;;;;;;;1.33;0.63;;;;;;;-146.52;100.00;63329.72;1001320;29;20112;-77
2021/07/05 00:41:05;;;;;;;3.25;0.80;;;;;;;-146.52;100.00;63329.72;1001264;29;20018;-78
2021/07/05 00:41:36;;;;;;;0.52;0.50;;;;;;;-146.52;100.00;63329.72;1001242;29;20030;-77
2021/07/05 00:42:07;;;;;;;1.08;0.70;;;;;;;-146.52;100.00;63329.72;1007823;29;20093;-77
2021/07/05 00:42:37;;;;;;;1.40;0.80;;;;;;;-146.52;100.00;63329.72;1005766;29;20021;-79
2021/07/05 00:43:08;;;;;;;2.60;0.70;;;;;;;-146.52;100.00;63329.72;1005671;29;20041;-77
2021/07/05 00:43:38;;;;;;;1.63;1.08;;;;;;;-146.52;100.00;63329.72;1005275;29;20018;-78
2021/07/05 00:44:09;;;;;;;5.88;1.00;;;;;;;-146.52;100.00;63329.72;1009024;29;20030;-77
2021/07/05 00:44:40;;;;;;;1.75;0.98;;;;;;;-146.52;100.00;63329.72;1005701;29;20021;-78
2021/07/05 00:45:11;;;;;;;2.92;1.02;;;;;;;-146.52;100.00;63329.72;1009252;29;20013;-79
2021/07/05 00:45:41;;;;;;;1.08;0.90;;;;;;;-146.52;100.00;63329.72;1008766;29;20033;-78
2021/07/05 00:46:12;;;;;;;1.15;0.80;;;;;;;-146.52;100.00;63329.72;1005215;29;20021;-77
2021/07/05 00:46:43;;;;;;;1.20;0.80;;;;;;;-146.52;100.00;63329.72;1012935;29;20157;-78
2021/07/05 00:47:13;;;;;;;1.70;0.85;;;;;;;-146.52;100.00;63329.72;1001426;29;20053;-75
2021/07/05 00:47:44;;;;;;;1.88;0.80;;;;;;;-146.52;100.00;63329.72;1005313;29;20020;-77
2021/07/05 00:48:15;;;;;;;1.58;0.70;;;;;;;-146.52;100.00;63329.72;1008973;29;20112;-78
2021/07/05 00:48:45;;;;;;;0.95;0.60;;;;;;;-146.52;100.00;63329.72;1005095;29;20017;-77
2021/07/05 00:49:16;;;;;;;1.35;0.88;;;;;;;-146.52;100.00;63329.72;1005331;29;20028;-79
2021/07/05 00:49:47;;;;;;;1.85;0.80;;;;;;;-146.52;100.00;63329.72;1005318;29;20018;-79
2021/07/05 00:50:18;;;;;;;1.67;0.88;;;;;;;-146.52;100.00;63329.72;1004817;29;20025;-78
2021/07/05 00:50:49;;;;;;;0.77;0.65;;;;;;;-146.52;100.00;63329.72;1001130;29;20397;-78
2021/07/05 00:51:20;;;;;;;1.83;0.70;;;;;;;-146.52;100.00;63329.72;1005147;29;20121;-78
2021/07/05 00:51:51;;;;;;;1.90;0.88;;;;;;;-146.52;100.00;63329.72;1001455;29;20025;-79
2021/07/05 00:52:22;;;;;;;2.38;0.75;;;;;;;-146.52;100.00;63329.72;1004841;29;20040;-77
2021/07/05 00:52:53;;;;;;;2.10;0.90;;;;;;;-146.52;100.00;63329.72;1001449;29;20057;-78
2021/07/05 00:53:24;;;;;;;5.38;1.38;;;;;;;-146.52;100.00;63329.72;1005148;29;20026;-77
2021/07/05 00:53:55;;;;;;;1.85;0.90;;;;;;;-146.52;100.00;63329.72;1004957;29;20029;-77
2021/07/05 00:54:25;;;;;;;1.27;0.90;;;;;;;-146.52;100.00;63329.72;1001233;29;20026;-77
2021/07/05 00:54:56;;;;;;;1.42;0.80;;;;;;;-146.52;100.00;63329.72;1001338;29;20047;-76
2021/07/05 00:55:27;;;;;;;1.25;0.68;;;;;;;-146.52;100.00;63329.72;1008908;29;20116;-78
2021/07/05 00:55:57;;;;;;;1.20;0.77;;;;;;;-146.52;100.00;63329.72;1001297;29;20034;-78
2021/07/05 00:56:28;;;;;;;1.30;0.90;;;;;;;-146.52;100.00;63329.72;997262;29;20027;-77
2021/07/05 00:56:59;;;;;;;2.20;1.00;;;;;;;-146.52;100.00;63329.72;997424;29;20023;-77
2021/07/05 00:57:29;;;;;;;1.30;0.90;;;;;;;-146.52;100.00;63329.72;1012661;29;20100;-77
2021/07/05 00:58:00;;;;;;;1.10;0.70;;;;;;;-146.52;100.00;63329.72;997270;29;20030;-77
2021/07/05 00:58:31;;;;;;;2.55;0.80;;;;;;;-146.52;100.00;63329.72;1008704;29;20024;-78
2021/07/05 00:59:01;;;;;;;2.53;1.10;;;;;;;-146.52;100.00;63329.72;1001194;29;20030;-77
2021/07/05 00:59:32;;;;;;;2.50;0.90;;;;;;;-146.52;100.00;63329.72;997478;29;20485;-77
2021/07/05 01:00:05;;;;;;;1.95;0.95;;;;;;;-146.52;100.00;63329.72;1008859;29;20105;-77
2021/07/05 01:00:35;;;;;;;1.70;0.90;;;;;;;-146.52;100.00;63329.72;1008781;29;20158;-77
2021/07/05 01:01:06;;;;;;;1.30;0.60;;;;;;;-146.52;100.00;63329.72;1004936;29;20437;-78
2021/07/05 01:01:37;;;;;;;1.10;0.75;;;;;;;-146.52;100.00;63329.72;1008249;29;20100;-78
2021/07/05 01:02:07;;;;;;;1.10;0.75;;;;;;;-146.52;100.00;63329.72;1004687;29;20030;-77
2021/07/05 01:02:38;;;;;;;1.52;0.95;;;;;;;-146.52;100.00;63329.72;1004986;29;20121;-77
2021/07/05 01:03:08;;;;;;;2.58;0.90;;;;;;;-146.52;100.00;63329.72;1005207;29;20407;-77
2021/07/05 01:03:39;;;;;;;2.65;0.77;;;;;;;-146.52;100.00;63329.72;1005047;29;20025;-77
2021/07/05 01:04:09;;;;;;;1.20;0.82;;;;;;;-146.52;100.00;63329.72;1005036;29;20053;-77
2021/07/05 01:04:40;;;;;;;2.60;0.77;;;;;;;-146.52;100.00;63329.72;1000954;29;20489;-77
2021/07/05 01:05:11;;;;;;;1.92;1.00;;;;;;;-146.52;100.00;63329.72;1004828;29;20159;-77
2021/07/05 01:05:42;;;;;;;1.65;0.75;;;;;;;-146.52;100.00;63329.72;1004802;29;20121;-78
2021/07/05 01:06:13;;;;;;;1.10;0.77;;;;;;;-146.52;100.00;63329.72;1005005;29;20030;-79
2021/07/05 01:06:43;;;;;;;1.52;0.80;;;;;;;-146.52;100.00;63329.72;1004801;29;20537;-77
2021/07/05 01:07:14;;;;;;;2.30;1.00;;;;;;;-146.52;100.00;63329.72;1005082;29;20053;-78
2021/07/05 01:07:45;;;;;;;1.70;0.95;;;;;;;-146.52;100.00;63329.72;1005021;29;20038;-77
2021/07/05 01:08:16;;;;;;;1.95;0.90;;;;;;;-146.52;100.00;63329.72;997204;29;20061;-78
2021/07/05 01:08:47;;;;;;;1.52;1.00;;;;;;;-146.52;100.00;63329.72;997300;29;20045;-77
2021/07/05 01:09:17;;;;;;;1.52;0.80;;;;;;;-146.52;100.00;63329.72;1004310;29;20109;-77
2021/07/05 01:09:48;;;;;;;2.05;0.80;;;;;;;-146.52;100.00;63329.72;1004944;29;20085;-78
2021/07/05 01:10:19;;;;;;;2.10;0.95;;;;;;;-146.52;100.00;63329.72;1005030;29;20026;-76
2021/07/05 01:10:50;;;;;;;3.58;0.93;;;;;;;-146.52;100.00;63329.72;1004997;29;20021;-78
2021/07/05 01:11:21;;;;;;;2.90;0.80;;;;;;;-146.52;100.00;63329.72;1001110;29;20026;-79
2021/07/05 01:11:52;;;;;;;2.25;1.05;;;;;;;-146.52;100.00;63329.72;1004920;29;20052;-77
2021/07/05 01:12:22;;;;;;;1.75;0.63;;;;;;;-146.52;100.00;63329.72;1001144;29;20576;-77
2021/07/05 01:12:54;;;;;;;1.02;0.70;;;;;;;-146.52;100.00;63329.72;1004744;29;20112;-77
2021/07/05 01:13:24;;;;;;;1.10;0.93;;;;;;;-146.52;100.00;63329.72;1005277;29;20105;-78
2021/07/05 01:13:55;;;;;;;3.05;1.10;;;;;;;-146.52;100.00;63329.72;1004823;29;20045;-77
2021/07/05 01:14:25;;;;;;;1.27;0.88;;;;;;;-146.52;100.00;63329.72;1001050;29;20030;-77
2021/07/05 01:14:56;;;;;;;0.85;0.60;;;;;;;-146.52;100.00;63329.72;997263;29;20014;-77
2021/07/05 01:15:28;;;;;;;2.20;0.88;;;;;;;-146.52;100.00;63329.72;997282;29;20105;-77
2021/07/05 01:16:00;;;;;;;2.38;1.27;;;;;;;-146.52;100.00;63329.72;1001413;29;20134;-77
2021/07/05 01:16:31;;;;;;;1.23;0.63;;;;;;;-146.52;100.00;63329.72;1008794;29;20028;-77
2021/07/05 01:17:02;;;;;;;1.35;0.77;;;;;;;-146.52;100.00;63329.72;1004895;29;20120;-76
2021/07/05 01:17:33;;;;;;;1.27;0.90;;;;;;;-146.52;100.00;63329.72;1008771;29;20021;-79
2021/07/05 01:18:04;;;;;;;1.08;0.70;;;;;;;-146.52;100.00;63329.72;1000861;29;20130;-77
2021/07/05 01:18:35;;;;;;;0.90;0.68;;;;;;;-146.52;100.00;63329.72;1001131;29;20022;-77
2021/07/05 01:19:06;;;;;;;2.85;0.85;;;;;;;-146.52;100.00;63329.72;1001090;29;20113;-77
2021/07/05 01:19:38;;;;;;;2.00;0.90;;;;;;;-146.52;100.00;63329.72;1008621;29;20100;-77
2021/07/05 01:20:21;;;;;;;0.70;0.70;;;;;;;-146.52;100.00;63329.72;997479;29;20508;-77
2021/07/05 01:20:52;;;;;;;2.78;1.58;;;;;;;-146.52;100.00;63329.72;1004929;29;20018;-77
2021/07/05 01:21:22;;;;;;;1.00;0.68;;;;;;;-146.52;100.00;63329.72;1008638;29;20116;-78
2021/07/05 01:21:54;;;;;;;0.85;0.70;;;;;;;-146.52;100.00;63329.72;1005004;29;20229;-77
2021/07/05 01:22:24;;;;;;;1.42;0.90;;;;;;;-146.52;100.00;63329.72;1005093;29;20017;-77
2021/07/05 01:22:55;;;;;;;1.20;0.88;;;;;;;-146.52;100.00;63329.72;1001182;29;20429;-78
2021/07/05 01:23:26;;;;;;;1.27;0.90;;;;;;;-146.52;100.00;63329.72;997560;29;20022;-78
2021/07/05 01:23:56;;;;;;;2.13;1.30;;;;;;;-146.52;100.00;63329.72;1004916;29;20029;-78
2021/07/05 01:24:27;;;;;;;1.20;0.80;;;;;;;-146.52;100.00;63329.72;997348;29;20058;-77
2021/07/05 01:24:58;;;;;;;1.30;0.90;;;;;;;-146.52;100.00;63329.72;1004748;29;20029;-77
2021/07/05 01:25:29;;;;;;;0.95;0.77;;;;;;;-146.52;100.00;63329.72;1000961;29;20334;-77
2021/07/05 01:25:59;;;;;;;1.15;0.80;;;;;;;-146.52;100.00;63329.72;1001148;29;20030;-77
2021/07/05 01:26:30;;;;;;;1.20;0.80;;;;;;;-146.52;100.00;63329.72;1004960;29;20101;-78
2021/07/05 01:27:00;;;;;;;2.20;0.82;;;;;;;-146.52;100.00;63329.72;1001069;29;20113;-77
2021/07/05 01:27:31;;;;;;;2.38;0.90;;;;;;;-146.52;100.00;63329.72;1001085;29;20475;-77
2021/07/05 01:28:02;;;;;;;1.98;0.98;;;;;;;-146.52;100.00;63329.72;1004704;29;20476;-78
2021/07/05 01:28:33;;;;;;;1.50;0.95;;;;;;;-146.52;100.00;63329.72;1001051;29;20059;-78
2021/07/05 01:29:05;;;;;;;1.48;1.00;;;;;;;-146.52;100.00;63329.72;1001033;29;20030;-78
2021/07/05 01:29:36;;;;;;;3.85;1.27;;;;;;;-146.52;100.00;63329.72;1001350;29;20025;-78
2021/07/05 01:30:07;;;;;;;5.95;1.42;;;;;;;-146.52;100.00;63329.72;1004897;29;20504;-78
2021/07/05 01:30:40;;;;;;;2.20;1.15;;;;;;;-146.52;100.00;63329.72;1004891;29;20392;-78
2021/07/05 01:31:10;;;;;;;3.78;1.08;;;;;;;-146.52;100.00;63329.72;998003;29;20105;-78
2021/07/05 01:31:41;;;;;;;2.28;0.88;;;;;;;-146.52;100.00;63329.72;997253;29;20034;-78
2021/07/05 01:32:12;;;;;;;2.78;1.00;;;;;;;-146.52;100.00;63329.72;1001218;29;20077;-79
2021/07/05 01:32:47;;;;;;;1.88;1.00;;;;;;;-146.52;100.00;63329.72;1000924;29;20559;-77
2021/07/05 01:33:17;;;;;;;2.03;0.90;;;;;;;-146.52;100.00;63329.72;996575;29;20030;-77
2021/07/05 01:33:48;;;;;;;2.40;1.40;;;;;;;-146.52;100.00;63329.72;1001157;29;20454;-78
2021/07/05 01:34:54;;;;;;;2.97;1.30;;;;;;;-146.52;100.00;63329.72;1003408;29;20106;-77
2021/07/05 01:35:25;;;;;;;2.30;0.90;;;;;;;-146.52;100.00;63329.72;1002536;29;20568;-77
2021/07/05 01:35:55;;;;;;;3.15;0.85;;;;;;;-146.52;100.00;63329.72;1008664;29;20017;-77
2021/07/05 01:36:26;;;;;;;1.02;0.60;;;;;;;-146.52;100.00;63329.72;1008768;29;20161;-77
2021/07/05 01:36:56;;;;;;;0.85;0.70;;;;;;;-146.52;100.00;63329.72;1008656;29;20141;-77
2021/07/05 01:37:27;;;;;;;3.95;0.77;;;;;;;-146.52;100.00;63329.72;1008945;29;20052;-78
2021/07/05 01:37:58;;;;;;;1.90;1.00;;;;;;;-146.52;100.00;63329.72;1004752;29;20022;-77
2021/07/05 01:38:28;;;;;;;2.67;1.00;;;;;;;-146.52;100.00;63329.72;1004958;29;20017;-77
2021/07/05 01:38:59;;;;;;;1.35;1.00;;;;;;;-146.52;100.00;63329.72;1000806;29;20442;-78
2021/07/05 01:39:29;;;;;;;2.13;1.05;;;;;;;-146.52;100.00;63329.72;1001123;29;20057;-76
2021/07/05 01:40:00;;;;;;;2.45;1.10;;;;;;;-146.52;100.00;63329.72;1004690;29;20171;-78
2021/07/05 01:40:31;;;;;;;5.68;1.30;;;;;;;-146.52;100.00;63329.72;1004790;29;20017;-77
2021/07/05 01:41:02;;;;;;;2.75;0.90;;;;;;;-146.52;100.00;63329.72;1008442;29;20112;-77
2021/07/05 01:41:33;;;;;;;4.43;0.85;;;;;;;-146.52;100.00;63329.72;1008809;29;20017;-77
2021/07/05 01:42:04;;;;;;;1.50;0.98;;;;;;;-146.52;100.00;63329.72;1005026;29;20013;-77
2021/07/05 01:42:35;;;;;;;2.08;1.00;;;;;;;-146.52;100.00;63329.72;1000971;29;20026;-77
2021/07/05 01:43:05;;;;;;;2.45;0.93;;;;;;;-146.52;100.00;63329.72;1004714;29;20436;-77
2021/07/05 01:43:36;;;;;;;2.55;1.15;;;;;;;-146.52;100.00;63329.72;1004778;29;20456;-78
2021/07/05 01:44:07;;;;;;;3.03;1.10;;;;;;;-146.52;100.00;63329.72;1008867;29;20021;-76
2021/07/05 01:44:37;;;;;;;2.00;1.00;;;;;;;-146.52;100.00;63329.72;1004616;29;20081;-77
2021/07/05 01:45:09;;;;;;;1.83;1.10;;;;;;;-146.52;100.00;63329.72;1008348;29;20085;-77
2021/07/05 01:45:39;;;;;;;3.50;1.08;;;;;;;-146.52;100.00;63329.72;1001081;29;20041;-78
2021/07/05 01:46:10;;;;;;;2.40;1.05;;;;;;;-146.52;100.00;63329.72;1004951;29;20458;-77
2021/07/05 01:46:40;;;;;;;2.58;0.95;;;;;;;-146.52;100.00;63329.72;1004729;29;20479;-76
2021/07/05 01:47:11;;;;;;;1.90;1.10;;;;;;;-146.52;100.00;63329.72;1008592;29;20065;-78
2021/07/05 01:47:43;;;;;;;3.20;1.38;;;;;;;-146.52;100.00;63329.72;1004807;29;20078;-78
2021/07/05 01:48:13;;;;;;;1.55;1.02;;;;;;;-146.52;100.00;63329.72;1004772;29;20045;-77
2021/07/05 01:48:46;;;;;;;2.25;1.10;;;;;;;-146.52;100.00;63329.72;997494;29;20496;-77
2021/07/05 01:49:17;;;;;;;1.83;0.93;;;;;;;-146.52;100.00;63329.72;997035;29;20049;-77
2021/07/05 01:49:47;;;;;;;1.83;1.10;;;;;;;-146.52;100.00;63329.72;997200;29;20130;-78
2021/07/05 01:50:18;;;;;;;3.05;1.10;;;;;;;-146.52;100.00;63329.72;1008476;29;20184;-77
2021/07/05 01:50:49;;;;;;;1.30;1.00;;;;;;;-146.52;100.00;63329.72;1004905;29;20040;-77
2021/07/05 01:51:19;;;;;;;1.95;0.90;;;;;;;-146.52;100.00;63329.72;996953;29;20113;-77
2021/07/05 01:51:50;;;;;;;2.50;1.10;;;;;;;-146.52;100.00;63329.72;1001000;29;20101;-77
2021/07/05 01:52:21;;;;;;;1.90;1.05;;;;;;;-146.52;100.00;63329.72;997170;29;20091;-77
2021/07/05 01:52:52;;;;;;;1.65;0.90;;;;;;;-146.52;100.00;63329.72;997248;29;20026;-77
2021/07/05 01:53:22;;;;;;;2.55;1.00;;;;;;;-146.52;100.00;63329.72;1000895;29;20116;-77
2021/07/05 01:53:53;;;;;;;1.92;1.00;;;;;;;-146.52;100.00;63329.72;1001043;29;20026;-77
2021/07/05 01:54:23;;;;;;;2.05;0.90;;;;;;;-146.52;100.00;63329.72;1001017;29;20022;-77
2021/07/05 01:54:54;;;;;;;2.03;0.93;;;;;;;-146.52;100.00;63329.72;1001096;29;20038;-77
2021/07/05 01:55:32;;;;;;;0.90;0.73;;;;;;;-146.52;100.00;63329.72;1000702;29;20030;-77
2021/07/05 01:56:03;;;;;;;1.77;0.98;;;;;;;-146.52;100.00;63329.72;1001095;29;20033;-77
2021/07/05 01:56:34;;;;;;;2.92;1.20;;;;;;;-146.52;100.00;63329.72;1001029;29;20270;-77
2021/07/05 01:57:05;;;;;;;2.58;1.17;;;;;;;-146.52;100.00;63329.72;998392;29;20110;-77
2021/07/05 01:57:36;;;;;;;1.60;1.13;;;;;;;-146.52;100.00;63329.72;1004607;29;20480;-77
2021/07/05 01:58:07;;;;;;;3.38;1.20;;;;;;;-146.52;100.00;63329.72;1004685;29;20029;-77
2021/07/05 01:58:38;;;;;;;3.13;1.08;;;;;;;-146.52;100.00;63329.72;1004763;29;20044;-77
2021/07/05 01:59:09;;;;;;;4.50;1.00;;;;;;;-146.52;100.00;63329.72;1001030;29;20026;-78
2021/07/05 01:59:40;;;;;;;2.55;1.00;;;;;;;-146.52;100.00;63329.72;1004675;29;20036;-79
2021/07/05 02:00:13;;;;;;;2.35;1.15;;;;;;;-146.52;100.00;63329.72;1004699;29;20022;-77
2021/07/05 02:00:46;;;;;;;3.00;1.05;;;;;;;-146.52;100.00;63329.72;1008951;29;20144;-77
2021/07/05 02:01:17;;;;;;;1.65;1.00;;;;;;;-146.52;100.00;63329.72;1007938;29;20041;-78
2021/07/05 02:01:47;;;;;;;1.98;1.08;;;;;;;-146.52;100.00;63329.72;1000984;29;20026;-77
2021/07/05 02:02:18;;;;;;;1.58;1.10;;;;;;;-146.52;100.00;63329.72;1004980;29;20030;-78
2021/07/05 02:02:49;;;;;;;1.73;1.10;;;;;;;-146.52;100.00;63329.72;1008938;29;20111;-76
2021/07/05 02:03:19;;;;;;;2.17;1.08;;;;;;;-146.52;100.00;63329.72;1008458;29;20115;-77
2021/07/05 02:03:50;;;;;;;1.63;1.02;;;;;;;-146.52;100.00;63329.72;1004737;29;20143;-76
2021/07/05 02:04:23;;;;;;;1.60;1.20;;;;;;;-146.52;100.00;63329.72;1001072;29;20386;-77
2021/07/05 02:04:54;;;;;;;1.67;1.08;;;;;;;-146.52;100.00;63329.72;1004846;29;20029;-78
2021/07/05 02:05:25;;;;;;;2.80;0.90;;;;;;;-146.52;100.00;63329.72;1004853;29;20033;-78
2021/07/05 02:05:56;;;;;;;1.98;0.93;;;;;;;-146.52;100.00;63329.72;1000978;29;20078;-76
2021/07/05 02:06:26;;;;;;;4.03;1.10;;;;;;;-146.52;100.00;63329.72;1004555;29;20021;-77
2021/07/05 02:06:57;;;;;;;2.22;1.23;;;;;;;-146.52;100.00;63329.72;1001351;29;20034;-77
2021/07/05 02:07:27;;;;;;;3.58;1.20;;;;;;;-146.52;100.00;63329.72;1004912;29;20534;-77
2021/07/05 02:07:58;;;;;;;2.83;1.30;;;;;;;-146.52;100.00;63329.72;1004656;29;20057;-77
2021/07/05 02:08:28;;;;;;;1.80;1.23;;;;;;;-146.52;100.00;63329.72;1000961;29;20104;-78
2021/07/05 02:08:59;;;;;;;2.60;1.40;;;;;;;-146.52;100.00;63329.72;1004972;29;20085;-78
2021/07/05 02:09:30;;;;;;;2.50;1.35;;;;;;;-146.52;100.00;63329.72;1001028;29;20025;-77
2021/07/05 02:10:01;;;;;;;3.15;1.52;;;;;;;-146.52;100.00;63329.72;1004882;29;20592;-78
2021/07/05 02:10:34;;;;;;;3.22;1.30;;;;;;;-146.52;100.00;63329.72;1000920;29;20029;-78
2021/07/05 02:11:04;;;;;;;3.53;1.50;;;;;;;-146.52;100.00;63329.72;1004727;29;20022;-77
2021/07/05 02:11:35;;;;;;;3.17;1.38;;;;;;;-146.52;100.00;63329.72;1000908;29;20028;-77
2021/07/05 02:12:06;;;;;;;3.08;1.40;;;;;;;-146.52;100.00;63329.72;997156;29;20030;-77
2021/07/05 02:12:41;;;;;;;4.55;1.90;;;;;;;-146.52;100.00;63329.72;1001169;29;20117;-77
2021/07/05 02:13:22;;;;;;;2.78;1.50;;;;;;;-146.52;100.00;63329.72;1004525;29;20033;-77
2021/07/05 02:13:53;;;;;;;2.38;1.42;;;;;;;-146.52;100.00;63329.72;997271;29;20501;-77
2021/07/05 02:14:24;;;;;;;3.83;1.50;;;;;;;-146.52;100.00;63329.72;997215;29;20022;-77
2021/07/05 02:14:54;;;;;;;2.25;1.45;;;;;;;-146.52;100.00;63329.72;1008859;29;20402;-78
2021/07/05 02:15:25;;;;;;;2.65;1.52;;;;;;;-146.52;100.00;63329.72;1001596;29;20026;-78
2021/07/05 02:15:57;;;;;;;4.20;1.65;;;;;;;-146.52;100.00;63329.72;1001726;29;20112;-78
2021/07/05 02:16:28;;;;;;;4.95;3.42;;;;;;;-146.52;100.00;63329.72;1004832;29;20021;-77
2021/07/05 02:16:58;;;;;;;6.13;3.05;;;;;;;-146.52;100.00;63329.72;1001040;29;20449;-77
2021/07/05 02:17:29;;;;;;;4.00;1.60;;;;;;;-146.52;100.00;63329.72;1004825;29;20564;-78
2021/07/05 02:17:59;;;;;;;3.22;1.60;;;;;;;-146.52;100.00;63329.72;1004705;29;20169;-78
2021/07/05 02:18:30;;;;;;;3.03;1.52;;;;;;;-146.52;100.00;63329.72;1000987;29;20562;-77
2021/07/05 02:19:03;;;;;;;2.70;1.50;;;;;;;-146.52;100.00;63329.72;1000999;29;20087;-77
2021/07/05 02:19:34;;;;;;;2.60;1.67;;;;;;;-146.52;100.00;63329.72;1008691;29;20021;-77
2021/07/05 02:20:06;;;;;;;4.05;1.70;;;;;;;-146.52;100.00;63329.72;1004555;29;20534;-77
2021/07/05 02:20:37;;;;;;;1.90;1.23;;;;;;;-146.52;100.00;63329.72;1000720;29;20063;-77
2021/07/05 02:21:08;;;;;;;2.92;1.35;;;;;;;-146.52;100.00;63329.72;1000808;29;20030;-77
2021/07/05 02:21:38;;;;;;;2.08;1.30;;;;;;;-146.52;100.00;63329.72;997250;29;20018;-77